Time;durP1;ratioP1;P1;durP2;ratioP2;P2;SDS_P1;SDS_P2;PMS_P1;PMS_P2;Temp;Humidity;BMP_temperature;BMP_pressure;BME280_temperature;BME280_humidity;BME280_pressure;Samples;Min_cycle;Max_cycle;Signal;HPM_P1;HPM_P2
2023/04/29 00:02:06;;;;;;;34.38;23.95;;;11.40;99.90;;;;;;7305450;32;20126;-54
2023/04/29 00:06:10;;;;;;;37.83;23.90;;;11.40;99.90;;;;;;7300122;32;20288;-56
2023/04/29 00:10:13;;;;;;;34.00;22.92;;;11.40;99.90;;;;;;7294880;32;20275;-55
2023/04/29 00:14:15;;;;;;;36.58;24.10;;;11.40;99.90;;;;;;7304262;32;20119;-55
2023/04/29 00:18:17;;;;;;;36.63;24.58;;;11.40;99.90;;;;;;7297877;32;20439;-55
2023/04/29 00:22:21;;;;;;;37.53;24.02;;;11.40;99.90;;;;;;7306399;32;20453;-54
2023/04/29 00:26:23;;;;;;;39.53;26.33;;;11.40;99.90;;;;;;7312502;32;20379;-54
2023/04/29 00:30:25;;;;;;;44.95;29.92;;;11.30;99.90;;;;;;7318194;32;20186;-54
2023/04/29 00:34:26;;;;;;;58.78;37.75;;;11.30;99.90;;;;;;7305047;32;20353;-55
2023/04/29 00:38:28;;;;;;;65.93;40.83;;;11.10;99.90;;;;;;7305843;32;20615;-54
2023/04/29 00:42:32;;;;;;;68.65;42.15;;;11.10;99.90;;;;;;7307928;32;20100;-55
2023/04/29 00:46:34;;;;;;;65.00;40.38;;;11.00;99.90;;;;;;7305347;32;20203;-54
2023/04/29 00:50:36;;;;;;;68.25;43.28;;;10.90;99.90;;;;;;7307138;32;20119;-55
2023/04/29 00:54:38;;;;;;;75.07;44.63;;;10.80;99.90;;;;;;7308992;32;20666;-55
2023/04/29 00:58:48;;;;;;;82.90;46.60;;;10.80;99.90;;;;;;7312320;32;20218;-55
2023/04/29 01:02:51;;;;;;;79.87;45.17;;;10.70;99.90;;;;;;7300968;32;20258;-56
2023/04/29 01:06:56;;;;;;;86.75;47.65;;;10.80;99.90;;;;;;7311184;32;20103;-54
2023/04/29 01:11:11;;;;;;;91.85;48.08;;;10.60;99.90;;;;;;7305146;32;20508;-54
2023/04/29 01:15:22;;;;;;;85.12;45.80;;;10.60;99.90;;;;;;7316559;32;20112;-54
2023/04/29 01:19:59;;;;;;;89.68;47.33;;;10.60;99.90;;;;;;7305287;32;20178;-55
2023/04/29 01:24:01;;;;;;;87.05;47.42;;;10.50;99.90;;;;;;7310139;32;20140;-53
2023/04/29 01:28:25;;;;;;;89.40;46.28;;;10.40;99.90;;;;;;7305482;32;20207;-53
2023/04/29 01:33:02;;;;;;;89.55;46.28;;;10.50;99.90;;;;;;7308215;32;20126;-53
2023/04/29 01:37:18;;;;;;;87.90;43.25;;;10.40;99.90;;;;;;7308752;32;20153;-54
2023/04/29 01:41:35;;;;;;;88.65;45.83;;;10.30;99.90;;;;;;7302392;32;20134;-53
2023/04/29 01:45:41;;;;;;;83.28;43.45;;;10.30;99.90;;;;;;7302339;32;20115;-53
2023/04/29 01:49:45;;;;;;;84.43;42.80;;;10.20;99.90;;;;;;7302974;32;20155;-54
2023/04/29 01:53:47;;;;;;;96.45;46.00;;;10.20;99.90;;;;;;7304384;32;20190;-54
2023/04/29 01:57:49;;;;;;;92.00;44.78;;;10.20;99.90;;;;;;7307822;32;20217;-53
2023/04/29 02:01:51;;;;;;;103.05;47.83;;;10.20;99.90;;;;;;7302139;32;20104;-54
2023/04/29 02:05:52;;;;;;;87.47;41.35;;;10.10;99.90;;;;;;7305254;32;20211;-54
2023/04/29 02:09:54;;;;;;;88.47;44.20;;;10.10;99.90;;;;;;7316343;32;20108;-54
2023/04/29 02:13:56;;;;;;;89.65;43.10;;;10.10;99.90;;;;;;7310441;32;20163;-55
2023/04/29 02:17:57;;;;;;;88.50;41.67;;;10.00;99.90;;;;;;7303370;32;20199;-54
2023/04/29 02:21:59;;;;;;;84.37;42.08;;;10.00;99.90;;;;;;7302412;32;20501;-53
2023/04/29 02:26:04;;;;;;;87.32;41.83;;;10.00;99.90;;;;;;7308452;32;20222;-54
2023/04/29 02:30:07;;;;;;;86.03;42.38;;;9.90;99.90;;;;;;7299479;32;20191;-53
2023/04/29 02:34:08;;;;;;;86.12;40.83;;;10.00;99.90;;;;;;7307507;32;20125;-53
2023/04/29 02:38:10;;;;;;;82.07;39.67;;;9.90;99.90;;;;;;7308911;32;20108;-54
2023/04/29 02:42:12;;;;;;;83.85;39.97;;;9.90;99.90;;;;;;7302539;32;20173;-53
2023/04/29 02:46:15;;;;;;;81.93;40.78;;;9.80;99.90;;;;;;7303604;32;20111;-54
2023/04/29 02:50:17;;;;;;;84.45;40.42;;;9.90;99.90;;;;;;7312007;32;20217;-53
2023/04/29 02:54:18;;;;;;;83.00;42.05;;;9.80;99.90;;;;;;7303618;32;20226;-53
2023/04/29 02:58:21;;;;;;;91.45;41.88;;;9.80;99.90;;;;;;7295973;32;20112;-54
2023/04/29 03:02:22;;;;;;;86.07;40.47;;;9.80;99.90;;;;;;7305228;32;20473;-53
2023/04/29 03:06:24;;;;;;;87.62;40.20;;;9.70;99.90;;;;;;7307329;32;20483;-53
2023/04/29 03:10:26;;;;;;;76.60;38.70;;;9.70;99.90;;;;;;7300653;32;20228;-53
2023/04/29 03:14:28;;;;;;;76.95;37.38;;;9.70;99.90;;;;;;7300957;32;20153;-53
2023/04/29 03:18:30;;;;;;;80.20;39.35;;;9.60;99.90;;;;;;7298321;32;20258;-53
2023/04/29 03:22:31;;;;;;;83.82;41.25;;;9.60;99.90;;;;;;7303776;32;20123;-54
2023/04/29 03:26:33;;;;;;;84.00;39.63;;;9.60;99.90;;;;;;7300893;32;20271;-54
2023/04/29 03:30:35;;;;;;;82.12;39.78;;;9.60;99.90;;;;;;7303802;32;20123;-54
2023/04/29 03:34:37;;;;;;;81.80;40.38;;;9.60;99.90;;;;;;7307421;32;20496;-54
2023/04/29 03:38:39;;;;;;;74.97;38.13;;;9.50;99.90;;;;;;7302122;32;20725;-54
2023/04/29 03:42:40;;;;;;;79.75;38.53;;;9.50;99.90;;;;;;7300130;32;20130;-54
2023/04/29 03:46:42;;;;;;;76.62;38.50;;;9.60;99.90;;;;;;7306076;32;20107;-54
2023/04/29 03:50:44;;;;;;;70.55;35.40;;;9.50;99.90;;;;;;7305658;32;20099;-54
2023/04/29 03:54:46;;;;;;;70.80;38.03;;;9.60;99.90;;;;;;7302079;32;20183;-54
2023/04/29 03:58:48;;;;;;;73.47;36.38;;;9.60;99.90;;;;;;7303996;32;20092;-54
2023/04/29 04:02:50;;;;;;;66.65;33.92;;;9.60;99.90;;;;;;7305953;32;20217;-54
2023/04/29 04:06:52;;;;;;;50.33;29.12;;;9.60;99.90;;;;;;7306533;32;20219;-54
2023/04/29 04:10:53;;;;;;;47.58;26.62;;;9.60;99.90;;;;;;7297218;32;20114;-55
2023/04/29 04:14:55;;;;;;;49.70;27.37;;;9.50;99.90;;;;;;7297255;32;20179;-54
2023/04/29 04:18:58;;;;;;;46.65;26.35;;;9.60;99.90;;;;;;7296240;32;20130;-54
2023/04/29 04:23:00;;;;;;;49.13;27.33;;;9.50;99.90;;;;;;7301538;32;20194;-54
2023/04/29 04:27:01;;;;;;;41.37;22.42;;;9.40;99.90;;;;;;7302605;32;20273;-54
2023/04/29 04:31:04;;;;;;;41.15;22.35;;;9.40;99.90;;;;;;7302627;32;20092;-53
2023/04/29 04:35:07;;;;;;;40.08;23.70;;;9.40;99.90;;;;;;7301778;32;20096;-53
2023/04/29 04:39:08;;;;;;;40.08;23.27;;;9.30;99.90;;;;;;7299299;32;20122;-54
2023/04/29 04:43:10;;;;;;;42.25;22.15;;;9.30;99.90;;;;;;7300595;32;20122;-53
2023/04/29 04:47:12;;;;;;;40.10;22.95;;;9.30;99.90;;;;;;7297226;32;20158;-54
2023/04/29 04:51:13;;;;;;;38.13;21.17;;;9.30;99.90;;;;;;7310628;32;20118;-54
2023/04/29 04:55:15;;;;;;;38.80;22.67;;;9.30;99.90;;;;;;7303323;32;20209;-53
2023/04/29 04:59:17;;;;;;;40.20;22.37;;;9.30;99.90;;;;;;7301297;32;20146;-53
2023/04/29 05:03:19;;;;;;;34.88;21.50;;;9.40;99.90;;;;;;7306250;32;20151;-54
2023/04/29 05:07:21;;;;;;;36.20;20.95;;;9.30;99.90;;;;;;7307950;32;20242;-54
2023/04/29 05:11:22;;;;;;;39.22;21.85;;;9.40;99.90;;;;;;7309360;32;20184;-56
2023/04/29 05:15:26;;;;;;;36.55;21.98;;;9.30;99.90;;;;;;7302039;32;20143;-54
2023/04/29 05:19:27;;;;;;;40.15;23.45;;;9.30;99.90;;;;;;7305978;32;20128;-54
2023/04/29 05:23:29;;;;;;;37.15;21.92;;;9.30;99.90;;;;;;7305257;32;20514;-54
2023/04/29 05:27:31;;;;;;;36.08;22.40;;;9.30;99.90;;;;;;7310892;32;21344;-55
2023/04/29 05:31:32;;;;;;;37.55;21.92;;;9.30;99.90;;;;;;7300099;32;20104;-55
2023/04/29 05:35:34;;;;;;;38.60;22.83;;;9.40;99.90;;;;;;7303392;32;20154;-54
2023/04/29 05:39:36;;;;;;;34.90;21.33;;;9.50;99.90;;;;;;7306122;32;20112;-55
2023/04/29 05:43:38;;;;;;;38.17;23.27;;;9.40;99.90;;;;;;7300890;32;20107;-55
2023/04/29 05:47:40;;;;;;;37.53;23.70;;;9.40;99.90;;;;;;7296978;32;20220;-54
2023/04/29 05:51:41;;;;;;;37.95;23.90;;;9.40;99.90;;;;;;7299274;32;20182;-54
2023/04/29 05:55:43;;;;;;;39.80;24.17;;;9.50;99.90;;;;;;7305838;32;20237;-54
2023/04/29 05:59:45;;;;;;;36.85;22.83;;;9.60;99.90;;;;;;7296609;32;20176;-54
2023/04/29 06:03:47;;;;;;;37.30;23.75;;;9.50;99.90;;;;;;7309312;32;20744;-54
2023/04/29 06:07:50;;;;;;;33.03;22.08;;;9.60;99.90;;;;;;7308169;32;20116;-55
2023/04/29 06:11:52;;;;;;;36.63;22.65;;;9.60;99.90;;;;;;7301477;32;20877;-55
2023/04/29 06:15:54;;;;;;;34.45;21.75;;;9.60;99.90;;;;;;7299363;32;20822;-55
2023/04/29 06:19:56;;;;;;;40.88;21.92;;;9.70;99.90;;;;;;7296584;32;20283;-56
2023/04/29 06:23:58;;;;;;;34.03;21.92;;;9.60;99.90;;;;;;7306070;32;20526;-55
2023/04/29 06:28:00;;;;;;;34.72;21.42;;;9.60;99.90;;;;;;7303976;32;20118;-55
2023/04/29 06:32:01;;;;;;;34.92;22.60;;;9.60;99.90;;;;;;7296983;32;20521;-57
2023/04/29 06:36:04;;;;;;;37.97;23.17;;;9.60;99.90;;;;;;7296803;32;20136;-58
2023/04/29 06:40:06;;;;;;;37.47;25.30;;;9.50;99.90;;;;;;7301587;32;20183;-56
2023/04/29 06:44:08;;;;;;;36.80;23.62;;;9.60;99.90;;;;;;7301681;32;20104;-56
2023/04/29 06:48:10;;;;;;;34.90;23.60;;;9.50;99.90;;;;;;7299243;32;20143;-56
2023/04/29 06:52:12;;;;;;;37.17;23.33;;;9.50;99.90;;;;;;7304891;32;20213;-56
2023/04/29 06:56:14;;;;;;;33.35;22.02;;;9.50;99.90;;;;;;7305715;32;20124;-56
2023/04/29 07:00:19;;;;;;;35.55;22.67;;;9.60;99.90;;;;;;7301604;32;20169;-55
2023/04/29 07:04:21;;;;;;;34.00;22.00;;;9.70;99.90;;;;;;7299116;32;20172;-56
2023/04/29 07:08:23;;;;;;;33.63;21.67;;;9.80;99.90;;;;;;7300991;32;20104;-56
2023/04/29 07:12:25;;;;;;;29.55;21.08;;;9.90;99.90;;;;;;7297186;32;20114;-56
2023/04/29 07:16:27;;;;;;;29.58;21.27;;;9.90;99.90;;;;;;7300701;32;20517;-56
2023/04/29 07:20:29;;;;;;;30.15;20.48;;;10.00;99.90;;;;;;7301049;32;20236;-56
2023/04/29 07:24:31;;;;;;;30.42;19.83;;;10.00;99.90;;;;;;7298679;32;20322;-56
2023/04/29 07:28:32;;;;;;;26.62;19.70;;;10.00;99.90;;;;;;7293161;32;20513;-56
2023/04/29 07:32:34;;;;;;;30.60;20.83;;;10.10;99.90;;;;;;7302801;32;20149;-55
2023/04/29 07:36:36;;;;;;;28.23;20.30;;;10.20;99.90;;;;;;7299859;32;20104;-56
2023/04/29 07:40:37;;;;;;;32.47;20.52;;;10.10;99.90;;;;;;7295355;32;20992;-56
2023/04/29 07:44:40;;;;;;;35.17;21.05;;;10.10;99.90;;;;;;7299343;32;20537;-55
2023/04/29 07:48:41;;;;;;;26.65;20.35;;;10.10;99.90;;;;;;7298684;32;20506;-56
2023/04/29 07:52:48;;;;;;;28.80;20.23;;;10.10;99.90;;;;;;7294605;32;20589;-58
2023/04/29 07:56:50;;;;;;;31.62;21.12;;;10.10;99.90;;;;;;7299944;32;20768;-56
2023/04/29 08:00:51;;;;;;;31.95;22.00;;;10.20;99.90;;;;;;7294648;32;20104;-56
2023/04/29 08:04:54;;;;;;;30.12;20.83;;;10.30;99.90;;;;;;7296625;32;20268;-56
2023/04/29 08:08:57;;;;;;;27.30;20.52;;;10.40;99.90;;;;;;7296021;32;20215;-56
2023/04/29 08:12:58;;;;;;;30.12;21.00;;;10.40;99.90;;;;;;7295985;32;20099;-56
2023/04/29 08:17:00;;;;;;;36.75;22.75;;;10.40;99.90;;;;;;7297131;32;20289;-55
2023/04/29 08:21:02;;;;;;;31.80;21.70;;;10.40;99.90;;;;;;7296198;32;20092;-54
2023/04/29 08:25:04;;;;;;;30.88;22.42;;;10.30;99.90;;;;;;7299239;32;20124;-56
2023/04/29 08:29:06;;;;;;;30.73;22.20;;;10.30;99.90;;;;;;7301938;32;20420;-55
2023/04/29 08:33:08;;;;;;;37.60;24.80;;;10.20;99.90;;;;;;7298258;32;20316;-55
2023/04/29 08:37:10;;;;;;;40.05;25.90;;;10.00;99.90;;;;;;7295662;32;20842;-60
2023/04/29 08:41:14;;;;;;;40.58;27.70;;;10.00;99.90;;;;;;7299833;32;20253;-55
2023/04/29 08:45:19;;;;;;;40.70;27.52;;;10.00;99.90;;;;;;7298602;32;20700;-54
2023/04/29 08:49:21;;;;;;;38.13;27.50;;;10.00;99.90;;;;;;7302782;32;20104;-55
2023/04/29 08:53:23;;;;;;;46.40;32.40;;;10.00;99.90;;;;;;7309126;32;20732;-55
2023/04/29 08:57:26;;;;;;;49.47;32.63;;;10.00;99.90;;;;;;7309146;32;20096;-55
2023/04/29 09:01:28;;;;;;;48.22;32.55;;;9.90;99.90;;;;;;7305422;32;20153;-55
2023/04/29 09:05:33;;;;;;;50.85;33.00;;;9.80;99.90;;;;;;7307513;32;20228;-56
2023/04/29 09:09:35;;;;;;;107.03;44.33;;;9.80;99.90;;;;;;7301736;32;20512;-55
2023/04/29 09:13:37;;;;;;;54.33;33.25;;;9.80;99.90;;;;;;7301291;32;20104;-56
2023/04/29 09:17:46;;;;;;;53.50;35.10;;;9.90;99.90;;;;;;7301706;32;20216;-54
2023/04/29 09:21:55;;;;;;;47.03;33.97;;;10.00;99.90;;;;;;7300033;32;20096;-54
2023/04/29 09:25:57;;;;;;;45.38;33.60;;;10.10;99.90;;;;;;7309248;32;20202;-55
2023/04/29 09:30:01;;;;;;;47.78;32.53;;;10.10;99.90;;;;;;7303515;32;20128;-54
2023/04/29 09:34:04;;;;;;;48.10;33.47;;;10.00;99.90;;;;;;7304532;32;20126;-55
2023/04/29 09:38:13;;;;;;;45.92;32.65;;;10.10;99.90;;;;;;7296681;32;20230;-55
2023/04/29 09:42:15;;;;;;;42.83;29.35;;;10.10;99.90;;;;;;7307617;32;20155;-55
2023/04/29 09:46:16;;;;;;;43.53;28.90;;;10.20;99.90;;;;;;7308179;32;20127;-54
2023/04/29 09:50:19;;;;;;;42.35;27.42;;;10.10;99.90;;;;;;7309573;32;20559;-54
2023/04/29 09:54:27;;;;;;;38.80;26.40;;;10.20;99.90;;;;;;7306543;32;20191;-55
2023/04/29 09:58:35;;;;;;;45.65;27.23;;;10.10;99.90;;;;;;7307112;32;20123;-54
2023/04/29 10:02:42;;;;;;;40.05;26.92;;;10.20;99.90;;;;;;7302124;32;20182;-55
2023/04/29 10:06:47;;;;;;;44.22;27.73;;;10.30;99.90;;;;;;7301084;32;20157;-55
2023/04/29 10:10:56;;;;;;;44.08;27.77;;;10.30;99.90;;;;;;7311499;32;20210;-54
2023/04/29 10:15:07;;;;;;;43.80;26.75;;;10.30;99.90;;;;;;7315119;32;20861;-55
2023/04/29 10:19:11;;;;;;;44.40;27.95;;;10.40;99.90;;;;;;7310394;32;20163;-55
2023/04/29 10:23:14;;;;;;;42.83;27.20;;;10.50;99.90;;;;;;7305043;32;20597;-55
2023/04/29 10:27:17;;;;;;;46.70;26.70;;;10.50;99.90;;;;;;7306550;32;20124;-55
2023/04/29 10:31:21;;;;;;;41.88;25.80;;;10.70;99.90;;;;;;7304265;32;20194;-55
2023/04/29 10:35:24;;;;;;;37.60;25.58;;;10.80;99.90;;;;;;7307130;32;20150;-55
2023/04/29 10:40:03;;;;;;;38.13;25.02;;;10.90;99.90;;;;;;7301394;32;20855;-55
2023/04/29 10:44:05;;;;;;;36.83;24.58;;;11.00;99.90;;;;;;7315854;32;20803;-55
2023/04/29 10:48:12;;;;;;;36.03;24.77;;;11.10;99.90;;;;;;7306697;32;20100;-54
2023/04/29 10:52:15;;;;;;;39.73;25.43;;;11.20;99.90;;;;;;7302305;32;20475;-56
2023/04/29 10:56:17;;;;;;;38.30;26.02;;;11.20;99.90;;;;;;7311749;32;20138;-55
2023/04/29 11:00:26;;;;;;;31.87;24.23;;;11.50;99.90;;;;;;7297552;32;20175;-55
2023/04/29 11:04:30;;;;;;;36.10;25.83;;;11.90;99.90;;;;;;7301407;32;20203;-56
2023/04/29 11:08:38;;;;;;;33.55;25.30;;;12.00;99.90;;;;;;7297285;32;20471;-55
2023/04/29 11:12:40;;;;;;;34.78;24.73;;;12.40;99.90;;;;;;7305805;32;20506;-55
2023/04/29 11:16:54;;;;;;;35.45;25.65;;;12.70;99.90;;;;;;7300980;32;20186;-55
2023/04/29 11:21:05;;;;;;;32.65;24.52;;;13.10;99.90;;;;;;7298691;32;21756;-55
2023/04/29 11:25:08;;;;;;;29.30;23.90;;;13.20;99.90;;;;;;7299266;32;20100;-54
2023/04/29 11:29:10;;;;;;;31.17;24.87;;;13.30;99.90;;;;;;7299365;32;20222;-55
2023/04/29 11:33:12;;;;;;;34.90;25.33;;;13.20;99.90;;;;;;7302739;32;20126;-55
2023/04/29 11:37:22;;;;;;;31.60;22.70;;;13.50;99.90;;;;;;7295793;32;20122;-55
2023/04/29 11:41:25;;;;;;;31.35;23.40;;;13.80;99.90;;;;;;7297867;32;20198;-55
2023/04/29 11:45:27;;;;;;;28.12;24.00;;;14.00;99.90;;;;;;7295511;32;20107;-55
2023/04/29 11:49:33;;;;;;;31.30;21.62;;;14.20;99.90;;;;;;7302643;32;20288;-55
2023/04/29 11:53:34;;;;;;;27.75;21.55;;;14.20;99.90;;;;;;7302979;32;20203;-55
2023/04/29 11:57:38;;;;;;;27.23;22.73;;;14.00;99.90;;;;;;7303899;32;20695;-55
2023/04/29 12:01:41;;;;;;;26.30;22.45;;;14.00;99.90;;;;;;7302329;32;20150;-55
2023/04/29 12:06:01;;;;;;;28.10;22.25;;;13.90;99.90;;;;;;7300193;32;20175;-55
2023/04/29 12:10:10;;;;;;;25.55;19.92;;;13.90;99.90;;;;;;7295189;32;20104;-55
2023/04/29 12:14:13;;;;;;;23.45;19.85;;;14.10;99.90;;;;;;7296219;32;20185;-54
2023/04/29 12:18:17;;;;;;;30.80;21.17;;;14.40;99.90;;;;;;7305358;32;20282;-55
2023/04/29 12:22:19;;;;;;;26.62;21.33;;;14.20;99.90;;;;;;7309080;32;20258;-55
2023/04/29 12:26:20;;;;;;;23.62;18.60;;;14.10;99.90;;;;;;7306510;32;20328;-55
2023/04/29 12:30:22;;;;;;;29.55;20.40;;;15.00;99.90;;;;;;7307202;32;20498;-55
2023/04/29 12:34:27;;;;;;;18.83;16.83;;;15.40;99.90;;;;;;7310981;32;20209;-55
2023/04/29 12:38:30;;;;;;;19.08;15.77;;;16.20;99.90;;;;;;7307023;32;20096;-64
2023/04/29 12:42:35;;;;;;;20.80;17.00;;;16.80;99.90;;;;;;7302864;32;20179;-64
2023/04/29 12:46:38;;;;;;;16.98;14.52;;;16.40;99.90;;;;;;7316102;32;20285;-64
2023/04/29 12:50:40;;;;;;;17.02;14.60;;;16.60;99.90;;;;;;7299960;32;20183;-56
2023/04/29 12:54:42;;;;;;;17.73;13.82;;;16.20;99.90;;;;;;7309881;32;20583;-55
2023/04/29 12:58:44;;;;;;;18.55;14.52;;;16.00;99.90;;;;;;7307489;32;20653;-55
2023/04/29 13:02:46;;;;;;;16.87;14.60;;;15.50;99.90;;;;;;7310326;32;20294;-55
2023/04/29 13:06:52;;;;;;;20.58;14.13;;;14.90;99.90;;;;;;7305954;32;20108;-55
2023/04/29 13:10:54;;;;;;;19.10;15.98;;;14.80;99.90;;;;;;7306295;32;20177;-55
2023/04/29 13:14:56;;;;;;;20.90;15.70;;;14.50;99.90;;;;;;7306743;32;20198;-55
2023/04/29 13:19:00;;;;;;;22.27;16.40;;;14.50;99.90;;;;;;7302372;32;20204;-55
2023/04/29 13:23:21;;;;;;;18.37;16.45;;;14.30;99.90;;;;;;7303244;32;20207;-56
2023/04/29 13:27:23;;;;;;;19.00;15.85;;;14.20;99.90;;;;;;7307874;32;20728;-56
2023/04/29 13:31:26;;;;;;;17.85;15.43;;;14.00;99.90;;;;;;7301924;32;20103;-56
2023/04/29 13:35:28;;;;;;;18.45;15.10;;;13.80;99.90;;;;;;7306881;32;20183;-56
2023/04/29 13:39:30;;;;;;;18.37;13.43;;;13.80;99.90;;;;;;7305971;32;20099;-56
2023/04/29 13:43:32;;;;;;;17.60;13.75;;;13.70;99.90;;;;;;7300501;32;20108;-55
2023/04/29 13:47:40;;;;;;;16.60;13.13;;;13.60;99.90;;;;;;7304569;32;20395;-56
2023/04/29 13:52:02;;;;;;;15.05;11.77;;;13.70;99.90;;;;;;7296423;32;20599;-56
2023/04/29 13:56:24;;;;;;;16.92;12.98;;;13.70;99.90;;;;;;7303865;32;22674;-55
2023/04/29 14:00:30;;;;;;;13.70;11.20;;;13.50;99.90;;;;;;7300818;32;20204;-55
2023/04/29 14:04:51;;;;;;;17.67;11.35;;;13.50;99.90;;;;;;7301530;32;20222;-56
2023/04/29 14:08:54;;;;;;;15.40;11.23;;;13.50;99.90;;;;;;7301013;32;20088;-55
2023/04/29 14:12:56;;;;;;;13.88;10.98;;;13.50;99.90;;;;;;7305271;32;20125;-55
2023/04/29 14:16:58;;;;;;;13.60;9.70;;;13.70;99.90;;;;;;7304833;32;20252;-54
2023/04/29 14:20:59;;;;;;;14.25;10.40;;;13.70;99.90;;;;;;7307524;32;20193;-54
2023/04/29 14:25:01;;;;;;;13.13;9.88;;;13.90;99.90;;;;;;7313647;32;20208;-55
2023/04/29 14:29:03;;;;;;;11.50;9.50;;;14.10;99.90;;;;;;7306541;32;20183;-54
2023/04/29 14:33:04;;;;;;;13.30;10.02;;;14.00;99.90;;;;;;7307911;32;20167;-54
2023/04/29 14:37:07;;;;;;;12.65;9.65;;;14.20;99.90;;;;;;7312411;32;20222;-56
2023/04/29 14:41:08;;;;;;;12.00;8.63;;;14.30;99.90;;;;;;7305199;32;20130;-56
2023/04/29 14:45:11;;;;;;;12.37;8.70;;;14.30;99.90;;;;;;7299756;32;20100;-54
2023/04/29 14:49:12;;;;;;;12.02;7.82;;;14.40;99.90;;;;;;7298368;32;20604;-54
2023/04/29 14:53:14;;;;;;;10.65;8.02;;;14.50;99.90;;;;;;7304180;32;20162;-54
2023/04/29 14:57:16;;;;;;;11.50;8.30;;;14.70;99.90;;;;;;7302157;32;20130;-55
2023/04/29 15:01:18;;;;;;;10.98;8.43;;;14.70;99.90;;;;;;7308401;32;20643;-54
2023/04/29 15:05:20;;;;;;;9.65;8.07;;;14.70;99.90;;;;;;7299237;32;20111;-54
2023/04/29 15:09:23;;;;;;;14.50;9.00;;;15.00;99.90;;;;;;7302789;32;20210;-54
2023/04/29 15:13:24;;;;;;;12.15;8.10;;;14.70;99.90;;;;;;7301032;32;20175;-58
2023/04/29 15:17:27;;;;;;;11.60;7.85;;;14.80;99.90;;;;;;7304950;32;20099;-54
2023/04/29 15:21:29;;;;;;;9.80;7.57;;;15.00;99.90;;;;;;7294800;32;20324;-55
2023/04/29 15:25:33;;;;;;;12.63;8.27;;;14.90;99.90;;;;;;7303489;32;20632;-55
2023/04/29 15:29:36;;;;;;;11.80;7.90;;;14.70;99.90;;;;;;7302340;32;20104;-55
2023/04/29 15:33:38;;;;;;;11.43;7.97;;;14.60;99.90;;;;;;7298167;32;20155;-55
2023/04/29 15:37:39;;;;;;;11.25;7.30;;;14.40;99.90;;;;;;7301869;32;20145;-55
2023/04/29 15:41:41;;;;;;;9.35;7.45;;;14.50;99.90;;;;;;7300292;32;20147;-55
2023/04/29 15:45:43;;;;;;;11.45;6.87;;;14.60;99.90;;;;;;7302178;32;20191;-55
2023/04/29 15:49:45;;;;;;;8.48;6.55;;;14.50;99.90;;;;;;7297248;32;20974;-55
2023/04/29 15:53:47;;;;;;;10.38;7.97;;;14.60;99.90;;;;;;7302030;32;20186;-55
2023/04/29 15:57:50;;;;;;;8.98;7.03;;;14.60;99.90;;;;;;7295833;32;20223;-55
2023/04/29 16:01:52;;;;;;;11.52;7.50;;;14.60;99.90;;;;;;7298443;32;20100;-55
2023/04/29 16:05:54;;;;;;;10.60;8.00;;;14.90;99.90;;;;;;7296629;32;20506;-58
2023/04/29 16:09:55;;;;;;;10.02;7.35;;;15.00;99.90;;;;;;7305508;32;20119;-54
2023/04/29 16:13:57;;;;;;;9.75;7.55;;;15.00;99.90;;;;;;7300650;32;20232;-55
2023/04/29 16:18:00;;;;;;;10.35;7.93;;;14.90;99.90;;;;;;7304834;32;20122;-55
2023/04/29 16:22:02;;;;;;;13.32;7.60;;;14.90;99.90;;;;;;7305405;32;20214;-56
2023/04/29 16:26:04;;;;;;;12.75;8.88;;;15.00;99.90;;;;;;7304620;32;20593;-56
2023/04/29 16:30:06;;;;;;;15.65;9.38;;;15.00;99.90;;;;;;7296389;32;20356;-55
2023/04/29 16:34:08;;;;;;;10.27;7.62;;;14.90;99.90;;;;;;7304312;32;20126;-55
2023/04/29 16:38:11;;;;;;;15.77;9.82;;;14.90;99.90;;;;;;7300495;32;20109;-55
2023/04/29 16:42:14;;;;;;;11.55;9.13;;;14.90;99.90;;;;;;7300924;32;20099;-56
2023/04/29 16:46:15;;;;;;;10.63;7.80;;;14.80;99.90;;;;;;7295414;32;20226;-55
2023/04/29 16:50:17;;;;;;;12.20;7.90;;;14.70;99.90;;;;;;7296516;32;20225;-55
2023/04/29 16:54:22;;;;;;;9.32;6.80;;;14.50;99.90;;;;;;7300318;32;20210;-56
2023/04/29 16:58:24;;;;;;;11.50;7.10;;;14.50;99.90;;;;;;7300049;32;20103;-55
2023/04/29 17:02:26;;;;;;;12.35;6.87;;;14.50;99.90;;;;;;7302531;32;20151;-55
2023/04/29 17:06:28;;;;;;;12.02;7.22;;;14.40;99.90;;;;;;7297211;32;20092;-55
2023/04/29 17:10:30;;;;;;;11.70;7.10;;;14.30;99.90;;;;;;7301559;32;20250;-56
2023/04/29 17:14:32;;;;;;;11.25;7.45;;;14.30;99.90;;;;;;7304474;32;20204;-56
2023/04/29 17:18:33;;;;;;;8.27;5.55;;;14.20;99.90;;;;;;7303383;32;20726;-55
2023/04/29 17:22:35;;;;;;;11.27;8.07;;;14.10;99.90;;;;;;7313643;32;20119;-55
2023/04/29 17:26:37;;;;;;;9.55;7.22;;;14.10;99.90;;;;;;7314599;32;20850;-55
2023/04/29 17:30:38;;;;;;;10.73;8.07;;;14.00;99.90;;;;;;7318575;32;20103;-56
2023/04/29 17:34:40;;;;;;;12.02;8.07;;;13.80;99.90;;;;;;7307336;32;20203;-56
2023/04/29 17:38:42;;;;;;;10.55;7.00;;;13.80;99.90;;;;;;7305407;32;20203;-55
2023/04/29 17:42:43;;;;;;;9.02;6.45;;;13.70;99.90;;;;;;7308543;32;20162;-55
2023/04/29 17:46:45;;;;;;;10.80;6.03;;;13.60;99.90;;;;;;7300331;32;20403;-55
2023/04/29 17:50:47;;;;;;;9.18;6.93;;;13.50;99.90;;;;;;7302145;32;20103;-57
2023/04/29 17:54:49;;;;;;;8.65;6.37;;;13.50;99.90;;;;;;7305545;32;20581;-56
2023/04/29 17:58:51;;;;;;;9.32;6.82;;;13.40;99.90;;;;;;7301869;32;20479;-56
2023/04/29 18:02:52;;;;;;;9.43;7.35;;;13.40;99.90;;;;;;7306665;32;20266;-56
2023/04/29 18:06:54;;;;;;;7.95;6.22;;;13.30;99.90;;;;;;7304808;32;20122;-56
2023/04/29 18:10:56;;;;;;;10.02;6.00;;;13.20;99.90;;;;;;7298075;32;20092;-56
2023/04/29 18:14:57;;;;;;;6.90;5.03;;;13.10;99.90;;;;;;7305361;32;20104;-56
2023/04/29 18:18:59;;;;;;;7.57;5.15;;;13.00;99.90;;;;;;7303834;32;20099;-55
2023/04/29 18:23:01;;;;;;;11.05;6.50;;;12.90;99.90;;;;;;7300426;32;20625;-56
2023/04/29 18:27:03;;;;;;;10.68;6.18;;;12.80;99.90;;;;;;7302271;32;20301;-56
2023/04/29 18:31:05;;;;;;;9.90;6.15;;;12.70;99.90;;;;;;7309310;32;20127;-56
2023/04/29 18:35:08;;;;;;;8.82;5.78;;;12.60;99.90;;;;;;7310730;32;20206;-56
2023/04/29 18:39:09;;;;;;;10.18;6.20;;;12.60;99.90;;;;;;7300752;32;20217;-56
2023/04/29 18:43:15;;;;;;;7.45;5.80;;;12.50;99.90;;;;;;7304113;32;20183;-56
2023/04/29 18:47:18;;;;;;;10.38;6.03;;;12.40;99.90;;;;;;7311587;32;20154;-56
2023/04/29 18:51:21;;;;;;;8.77;6.35;;;12.40;99.90;;;;;;7307461;32;20141;-55
2023/04/29 18:55:23;;;;;;;9.55;5.93;;;12.30;99.90;;;;;;7306070;32;20238;-56
2023/04/29 18:59:25;;;;;;;9.70;5.97;;;12.20;99.90;;;;;;7311788;32;21266;-56
2023/04/29 19:03:27;;;;;;;8.63;5.45;;;12.20;99.90;;;;;;7299212;32;22186;-55
2023/04/29 19:07:29;;;;;;;8.30;5.37;;;12.10;99.90;;;;;;7300837;32;20119;-55
2023/04/29 19:11:31;;;;;;;11.43;5.22;;;12.00;99.90;;;;;;7300037;32;20116;-55
2023/04/29 19:15:33;;;;;;;7.75;5.45;;;12.00;99.90;;;;;;7302385;32;20772;-55
2023/04/29 19:19:34;;;;;;;18.12;12.30;;;11.90;99.90;;;;;;7306671;32;20145;-55
2023/04/29 19:23:36;;;;;;;22.45;14.93;;;11.80;99.90;;;;;;7298179;32;20107;-54
2023/04/29 19:27:39;;;;;;;20.52;14.90;;;11.70;99.90;;;;;;7309261;32;20206;-54
2023/04/29 19:31:41;;;;;;;15.98;10.93;;;11.60;99.90;;;;;;7295057;32;20108;-56
2023/04/29 19:35:43;;;;;;;13.27;8.43;;;11.40;99.90;;;;;;7303705;32;20326;-54
2023/04/29 19:39:44;;;;;;;11.10;7.37;;;11.30;99.90;;;;;;7302196;32;20118;-54
2023/04/29 19:43:46;;;;;;;8.05;5.85;;;11.10;99.90;;;;;;7306091;32;20130;-54
2023/04/29 19:47:48;;;;;;;7.62;5.80;;;10.90;99.90;;;;;;7304185;32;20218;-54
2023/04/29 19:51:50;;;;;;;10.50;7.25;;;10.70;99.90;;;;;;7308037;32;20104;-55
2023/04/29 19:55:52;;;;;;;12.50;8.68;;;10.50;99.90;;;;;;7310952;32;20200;-54
2023/04/29 19:59:54;;;;;;;15.18;10.25;;;10.40;99.90;;;;;;7301042;32;20195;-54
2023/04/29 20:03:56;;;;;;;26.10;12.80;;;10.20;99.90;;;;;;7306291;32;20645;-55
2023/04/29 20:07:58;;;;;;;17.73;12.30;;;9.90;99.90;;;;;;7302454;32;20397;-55
2023/04/29 20:12:01;;;;;;;15.52;9.50;;;9.80;99.90;;;;;;7294296;32;20228;-55
2023/04/29 20:16:03;;;;;;;11.85;7.87;;;9.60;99.90;;;;;;7302955;32;20257;-54
2023/04/29 20:20:07;;;;;;;12.90;7.55;;;9.40;99.90;;;;;;7298128;32;20128;-54
2023/04/29 20:24:09;;;;;;;9.68;6.78;;;9.30;99.90;;;;;;7305574;32;20186;-55
2023/04/29 20:28:11;;;;;;;10.45;6.30;;;9.10;99.90;;;;;;7304367;32;20576;-55
2023/04/29 20:32:12;;;;;;;9.77;5.90;;;9.00;99.90;;;;;;7307800;32;20103;-55
2023/04/29 20:36:14;;;;;;;11.55;6.55;;;8.90;99.90;;;;;;7300499;32;20104;-55
2023/04/29 20:40:16;;;;;;;8.68;6.15;;;8.80;99.90;;;;;;7308445;32;20183;-54
2023/04/29 20:44:18;;;;;;;12.85;6.87;;;8.70;99.90;;;;;;7309643;32;20117;-54